Time;durP1;ratioP1;P1;durP2;ratioP2;P2;SDS_P1;SDS_P2;PMS_P1;PMS_P2;Temp;Humidity;BMP_temperature;BMP_pressure;BME280_temperature;BME280_humidity;BME280_pressure;Samples;Min_cycle;Max_cycle;Signal;HPM_P1;HPM_P2
2021/04/07 00:00:38;;;;;;;6.50;3.58;;;0.90;76.40;;;-0.79;73.00;95360.66;4931943;28;20036;-67
2021/04/07 00:03:04;;;;;;;7.28;3.60;;;1.00;76.10;;;-0.81;72.56;95360.00;4920910;29;20028;-67
2021/04/07 00:05:36;;;;;;;5.72;3.10;;;1.00;76.10;;;-0.82;73.27;95364.34;4947858;28;20039;-67
2021/04/07 00:08:02;;;;;;;4.90;3.22;;;0.90;76.00;;;-0.85;72.58;95356.88;4901156;29;20067;-67
2021/04/07 00:10:40;;;;;;;7.22;3.63;;;0.80;76.30;;;-0.87;73.67;95358.78;4929088;28;20040;-68
2021/04/07 00:13:07;;;;;;;7.57;3.20;;;0.80;76.80;;;-0.88;73.10;95359.75;4934370;28;20119;-68
2021/04/07 00:15:32;;;;;;;5.75;3.22;;;0.80;76.50;;;-0.87;72.65;95363.94;4932396;29;20043;-68
2021/04/07 00:17:59;;;;;;;6.25;2.92;;;0.80;76.70;;;-0.88;72.88;95357.16;4944969;28;20031;-68
2021/04/07 00:20:26;;;;;;;5.78;3.22;;;0.90;76.90;;;-0.90;73.14;95358.25;4935243;29;20039;-68
2021/04/07 00:22:52;;;;;;;6.38;3.33;;;0.80;77.10;;;-0.92;73.58;95371.25;4918754;29;20069;-68
2021/04/07 00:25:19;;;;;;;5.60;4.07;;;0.80;77.50;;;-0.96;73.54;95362.16;4914877;29;20069;-68
2021/04/07 00:27:52;;;;;;;5.95;3.30;;;0.70;78.10;;;-0.99;73.67;95357.28;4935084;29;20031;-68
2021/04/07 00:30:19;;;;;;;5.38;3.33;;;0.70;78.30;;;-1.00;74.08;95353.88;4946948;28;20079;-68
2021/04/07 00:32:45;;;;;;;5.03;3.40;;;0.70;78.70;;;-1.02;74.13;95362.72;4934688;28;20041;-67
2021/04/07 00:35:11;;;;;;;6.90;3.67;;;0.70;79.30;;;-1.05;73.90;95360.41;4904059;29;20051;-68
2021/04/07 00:37:37;;;;;;;6.57;3.72;;;0.60;79.00;;;-1.06;74.10;95367.34;4927504;28;20040;-68
2021/04/07 00:40:05;;;;;;;6.25;3.80;;;0.70;79.00;;;-1.06;74.60;95363.94;4944542;28;20039;-68
2021/04/07 00:42:35;;;;;;;4.90;3.40;;;0.60;78.60;;;-1.06;74.73;95372.50;4934351;28;20129;-68
2021/04/07 00:45:02;;;;;;;8.30;3.63;;;0.60;78.70;;;-1.08;74.64;95363.28;4935716;28;20111;-68
2021/04/07 00:47:28;;;;;;;6.90;3.60;;;0.60;79.00;;;-1.09;74.65;95369.38;4934696;28;20043;-68
2021/04/07 00:49:54;;;;;;;8.27;3.75;;;0.60;79.70;;;-1.08;75.07;95377.00;4944967;28;20352;-68
2021/04/07 00:52:19;;;;;;;5.38;3.03;;;0.60;80.10;;;-1.08;75.39;95376.19;4945305;28;20047;-68
2021/04/07 00:54:45;;;;;;;5.93;3.60;;;0.70;80.20;;;-1.05;75.41;95365.56;4916052;28;20039;-68
2021/04/07 00:57:11;;;;;;;7.43;3.65;;;0.70;80.40;;;-1.08;75.83;95374.41;4935828;28;20033;-67
2021/04/07 00:59:37;;;;;;;7.25;4.18;;;0.80;80.30;;;-1.05;75.63;95378.47;4911591;29;20039;-68
2021/04/07 01:02:02;;;;;;;6.78;3.90;;;0.70;80.50;;;-1.09;75.99;95377.94;4934436;28;20027;-67
2021/04/07 01:04:28;;;;;;;7.90;4.03;;;0.60;81.10;;;-1.08;76.24;95378.75;4899141;29;20074;-67
2021/04/07 01:06:54;;;;;;;7.53;4.10;;;0.70;81.00;;;-1.09;76.60;95374.56;4948533;28;20090;-67
2021/04/07 01:09:20;;;;;;;5.38;3.33;;;0.60;81.20;;;-1.08;76.48;95382.16;4918524;29;20052;-68
2021/04/07 01:11:46;;;;;;;4.68;3.40;;;0.70;81.50;;;-1.08;76.59;95386.50;4901826;29;20040;-67
2021/04/07 01:14:12;;;;;;;5.55;3.67;;;0.60;80.90;;;-1.11;76.33;95379.84;4932268;29;20035;-67
2021/04/07 01:16:37;;;;;;;5.90;3.42;;;0.60;80.80;;;-1.11;76.34;95379.84;4924308;28;20089;-67
2021/04/07 01:19:06;;;;;;;4.50;3.30;;;0.60;80.50;;;-1.15;76.70;95380.22;4928181;28;20097;-67
2021/04/07 01:21:32;;;;;;;48.78;33.80;;;0.50;80.40;;;-1.19;76.32;95379.69;4914286;28;20126;-67
2021/04/07 01:23:58;;;;;;;8.00;5.43;;;0.60;80.80;;;-1.16;76.52;95386.34;4902778;29;20059;-68
2021/04/07 01:26:23;;;;;;;4.80;3.78;;;0.60;80.50;;;-1.19;76.33;95389.19;4933409;29;20066;-68
2021/04/07 01:28:49;;;;;;;6.30;4.00;;;0.40;80.90;;;-1.29;76.52;95374.53;4950523;28;20201;-68
2021/04/07 01:31:15;;;;;;;7.13;4.45;;;0.40;82.30;;;-1.25;77.06;95401.69;4924111;28;20048;-67
2021/04/07 01:33:42;;;;;;;8.55;4.55;;;0.40;82.40;;;-1.28;77.21;95389.06;4930631;28;20122;-67
2021/04/07 01:36:07;;;;;;;6.75;4.80;;;0.40;83.00;;;-1.30;77.37;95385.81;4911755;29;20031;-68
2021/04/07 01:38:33;;;;;;;9.88;5.05;;;0.40;83.80;;;-1.33;77.54;95393.81;4916913;28;20035;-67
2021/04/07 01:40:59;;;;;;;6.55;5.07;;;0.40;83.90;;;-1.36;77.86;95394.09;4937313;28;20055;-68
2021/04/07 01:43:25;;;;;;;7.35;5.70;;;0.20;87.40;;;-1.36;78.18;95377.75;4927758;28;20469;-68
2021/04/07 01:45:51;;;;;;;7.60;4.95;;;0.40;86.10;;;-1.37;78.45;95382.09;4929343;29;20082;-68
2021/04/07 01:48:17;;;;;;;6.28;4.93;;;0.40;84.40;;;-1.37;78.44;95381.28;4921619;29;20040;-67
2021/04/07 01:50:46;;;;;;;6.43;5.03;;;0.40;84.10;;;-1.38;78.93;95384.81;4914376;29;20040;-67
2021/04/07 01:53:13;;;;;;;5.72;4.72;;;0.50;83.50;;;-1.39;78.29;95384.00;4923639;28;20069;-67
2021/04/07 01:55:39;;;;;;;6.40;4.72;;;0.40;83.30;;;-1.40;78.58;95379.78;4949997;28;20035;-67
2021/04/07 01:58:05;;;;;;;5.35;4.40;;;0.40;83.30;;;-1.37;78.38;95382.09;4903327;29;20059;-67
2021/04/07 02:00:30;;;;;;;6.93;4.32;;;0.50;82.80;;;-1.36;78.51;95377.75;4964946;28;20039;-68
2021/04/07 02:02:56;;;;;;;5.63;4.40;;;0.50;82.50;;;-1.37;78.13;95384.69;4933502;28;20051;-67
2021/04/07 02:05:22;;;;;;;5.43;4.75;;;0.50;82.20;;;-1.38;78.41;95388.22;4932878;28;20125;-68
2021/04/07 02:07:48;;;;;;;7.57;4.63;;;0.40;82.40;;;-1.38;78.26;95383.06;4946057;28;20103;-67
2021/04/07 02:10:14;;;;;;;5.65;4.30;;;0.40;82.10;;;-1.36;78.32;95383.75;4921102;29;20183;-68
2021/04/07 02:12:39;;;;;;;6.97;4.60;;;0.50;82.20;;;-1.38;78.60;95385.63;4949232;28;20038;-67
2021/04/07 02:15:15;;;;;;;7.07;4.57;;;0.50;82.10;;;-1.37;79.39;95379.53;4921364;29;20032;-67
2021/04/07 02:17:40;;;;;;;6.72;4.30;;;0.50;82.00;;;-1.40;78.28;95379.78;4947870;28;20047;-68
2021/04/07 02:20:08;;;;;;;5.10;4.38;;;0.40;81.70;;;-1.42;78.25;95384.28;4917397;29;20718;-68
2021/04/07 02:22:33;;;;;;;8.02;4.60;;;0.40;81.90;;;-1.45;78.26;95379.38;4945165;29;20052;-67
2021/04/07 02:24:59;;;;;;;5.35;4.22;;;0.40;81.70;;;-1.48;78.26;95384.81;4926162;28;20046;-68
2021/04/07 02:27:25;;;;;;;5.28;4.40;;;0.30;81.90;;;-1.48;78.17;95386.56;4962917;28;20035;-68
2021/04/07 02:29:55;;;;;;;5.95;4.50;;;0.30;81.80;;;-1.51;78.58;95387.66;4922244;29;20554;-68
2021/04/07 02:32:21;;;;;;;8.45;4.47;;;0.30;81.80;;;-1.50;78.21;95381.56;4939388;29;20042;-69
2021/04/07 02:34:47;;;;;;;7.35;4.78;;;0.30;81.40;;;-1.49;78.12;95392.69;4931311;28;20058;-68
2021/04/07 02:37:14;;;;;;;7.60;4.53;;;0.30;81.50;;;-1.51;78.16;95389.44;4898927;29;20032;-69
2021/04/07 02:39:40;;;;;;;6.80;4.78;;;0.20;81.50;;;-1.55;78.10;95394.03;4899548;29;20131;-68
2021/04/07 02:42:07;;;;;;;6.38;4.90;;;0.20;81.50;;;-1.59;78.05;95390.06;4918145;29;20103;-69
2021/04/07 02:44:33;;;;;;;7.50;5.03;;;0.10;81.80;;;-1.63;78.09;95386.13;4925312;28;20035;-67
2021/04/07 02:46:59;;;;;;;5.88;4.75;;;0.10;81.80;;;-1.62;78.28;95404.03;4920814;29;20039;-67
2021/04/07 02:49:25;;;;;;;6.90;5.47;;;0.10;82.20;;;-1.62;78.48;95398.88;4952108;28;20541;-68
2021/04/07 02:51:51;;;;;;;9.65;5.60;;;0.20;82.10;;;-1.65;78.23;95398.34;4933553;28;20574;-68
2021/04/07 02:54:18;;;;;;;7.47;5.45;;;0.10;82.20;;;-1.64;78.41;95399.97;4942532;28;20035;-68
2021/04/07 02:56:44;;;;;;;8.23;5.28;;;0.20;82.10;;;-1.64;78.24;95399.97;4936487;28;20445;-67
2021/04/07 02:59:10;;;;;;;7.85;5.35;;;0.20;82.10;;;-1.65;78.64;95413.81;4929172;29;20031;-67
2021/04/07 03:01:35;;;;;;;7.80;5.47;;;0.10;82.20;;;-1.68;78.24;95409.72;4933955;28;20065;-68
2021/04/07 03:04:01;;;;;;;8.15;5.30;;;0.10;82.40;;;-1.67;78.41;95408.78;4945435;29;20162;-67
2021/04/07 03:06:27;;;;;;;9.02;5.72;;;0.10;82.50;;;-1.65;78.37;95413.81;4935295;28;20066;-67
2021/04/07 03:08:53;;;;;;;7.63;5.65;;;0.10;82.40;;;-1.67;78.87;95410.53;4952373;28;20102;-67
2021/04/07 03:11:18;;;;;;;8.65;5.75;;;0.10;82.40;;;-1.67;78.60;95415.69;4948999;28;20043;-67
2021/04/07 03:13:44;;;;;;;8.23;6.07;;;0.10;82.50;;;-1.67;78.67;95415.69;4942874;28;20514;-68
2021/04/07 03:16:10;;;;;;;7.82;5.72;;;0.10;82.30;;;-1.69;78.70;95417.59;4952427;28;20572;-68
2021/04/07 03:18:36;;;;;;;11.45;6.28;;;0.10;82.50;;;-1.69;78.88;95427.91;4948328;28;20728;-67
2021/04/07 03:21:02;;;;;;;8.05;5.78;;;0.10;82.70;;;-1.71;78.62;95419.50;4933310;28;20024;-68
2021/04/07 03:23:27;;;;;;;9.23;5.32;;;0.10;82.60;;;-1.72;78.56;95423.00;4922232;28;20090;-67
2021/04/07 03:25:53;;;;;;;7.53;5.82;;;0.00;82.50;;;-1.72;78.71;95428.19;4936957;28;20039;-68
2021/04/07 03:28:19;;;;;;;7.07;5.38;;;0.10;82.40;;;-1.71;78.79;95428.03;4935854;29;20059;-68
2021/04/07 03:30:51;;;;;;;6.68;5.43;;;0.00;82.30;;;-1.70;78.90;95434.00;4957233;28;20039;-68
2021/04/07 03:33:24;;;;;;;7.22;5.75;;;0.10;82.10;;;-1.69;79.83;95436.47;4904280;29;20435;-68
2021/04/07 03:35:51;;;;;;;7.40;5.38;;;0.10;82.10;;;-1.70;78.74;95436.59;4923269;29;20047;-68
2021/04/07 03:38:17;;;;;;;8.88;5.85;;;0.10;82.50;;;-1.69;78.56;95449.34;4919351;29;20416;-68
2021/04/07 03:40:43;;;;;;;8.20;6.00;;;0.10;82.30;;;-1.67;79.14;95451.78;4933416;28;20044;-68
2021/04/07 03:43:10;;;;;;;8.13;6.00;;;0.10;82.60;;;-1.69;78.94;95453.69;4950285;29;20098;-68
2021/04/07 03:45:37;;;;;;;8.10;6.70;;;0.10;83.30;;;-1.71;79.07;95453.81;4935071;28;20778;-68
2021/04/07 03:48:03;;;;;;;8.13;7.00;;;0.10;84.30;;;-1.72;79.56;95459.09;4935409;28;20086;-68
2021/04/07 03:50:29;;;;;;;8.27;6.90;;;0.00;84.60;;;-1.74;79.89;95450.69;4900308;29;20095;-68
2021/04/07 03:52:55;;;;;;;9.43;7.82;;;0.00;84.30;;;-1.81;79.88;95444.41;4900638;29;20628;-68
2021/04/07 03:55:20;;;;;;;9.90;7.50;;;-3276.70;85.90;;;-1.80;79.63;95467.50;4927772;28;20519;-68
2021/04/07 03:57:46;;;;;;;10.68;8.10;;;0.00;85.10;;;-1.83;79.91;95456.59;4954296;28;20031;-68
2021/04/07 04:00:13;;;;;;;10.13;8.23;;;-3276.70;86.50;;;-1.88;80.07;95468.13;4919889;29;20043;-68
2021/04/07 04:02:38;;;;;;;9.93;7.88;;;-3276.70;87.10;;;-1.92;80.74;95469.31;4966023;28;20063;-67
2021/04/07 04:05:06;;;;;;;8.23;5.30;;;-3276.50;87.80;;;-1.99;80.66;95481.09;4951580;28;20024;-69
2021/04/07 04:07:31;;;;;;;7.40;6.20;;;-3276.40;89.40;;;-2.01;80.92;95477.03;4934427;29;20059;-69
2021/04/07 04:09:57;;;;;;;7.05;5.40;;;-3276.50;89.10;;;-2.07;80.25;95480.09;4919877;29;20107;-70
2021/04/07 04:12:23;;;;;;;6.82;5.50;;;-3276.30;88.70;;;-2.06;80.70;95487.69;4946078;28;20118;-67
2021/04/07 04:14:48;;;;;;;9.23;6.15;;;-3276.40;88.50;;;-2.08;80.33;95494.72;4940551;28;20115;-69
2021/04/07 04:17:14;;;;;;;8.20;6.50;;;-3276.50;88.50;;;-2.08;80.55;95497.31;4913546;28;20050;-68
2021/04/07 04:19:40;;;;;;;8.35;6.70;;;-3276.50;87.60;;;-2.09;80.20;95503.41;4953989;28;20071;-68
2021/04/07 04:22:07;;;;;;;8.30;6.22;;;-3276.50;87.50;;;-2.09;80.30;95508.56;4962194;28;20057;-68
2021/04/07 04:24:33;;;;;;;7.80;6.00;;;-3276.60;86.90;;;-2.11;80.02;95513.03;4944393;28;20082;-68
2021/04/07 04:26:59;;;;;;;8.32;6.32;;;-3276.50;86.50;;;-2.14;80.05;95521.00;4914344;28;20031;-68
2021/04/07 04:29:24;;;;;;;6.80;5.72;;;-3276.50;86.60;;;-2.16;79.95;95528.03;4962691;28;20113;-68
2021/04/07 04:31:50;;;;;;;8.50;6.25;;;-3276.50;86.00;;;-2.13;80.22;95535.50;4934370;28;20098;-68
2021/04/07 04:34:16;;;;;;;8.15;6.40;;;-3276.50;85.70;;;-2.16;80.07;95539.16;4950008;29;20470;-68
2021/04/07 04:36:42;;;;;;;14.55;9.95;;;-3276.50;85.10;;;-2.17;79.67;95537.53;4933876;28;20581;-68
2021/04/07 04:39:07;;;;;;;10.63;6.05;;;-3276.50;84.70;;;-2.16;80.05;95546.06;4956195;28;20130;-68
2021/04/07 04:41:33;;;;;;;9.90;6.28;;;-3276.50;84.30;;;-2.16;79.58;95546.06;4902484;29;20082;-68
2021/04/07 04:43:59;;;;;;;7.38;6.35;;;-3276.50;83.60;;;-2.16;79.58;95543.50;4930296;28;20377;-69
2021/04/07 04:46:24;;;;;;;9.52;6.18;;;-3276.50;83.50;;;-2.17;79.38;95547.84;4944676;28;20070;-68
2021/04/07 04:48:50;;;;;;;6.95;5.93;;;-3276.50;83.60;;;-2.18;79.29;95542.81;4917507;28;20062;-66
2021/04/07 04:51:16;;;;;;;7.68;5.68;;;-3276.50;83.20;;;-2.16;79.24;95548.66;4915094;29;20059;-67
2021/04/07 04:53:42;;;;;;;9.57;6.13;;;-3276.60;82.60;;;-2.16;79.18;95549.47;4923647;29;20063;-68
2021/04/07 04:56:07;;;;;;;8.35;6.25;;;-3276.60;82.30;;;-2.14;78.96;95556.25;4955577;28;20066;-68
2021/04/07 04:58:33;;;;;;;7.53;6.38;;;-3276.60;82.30;;;-2.12;78.92;95559.53;4968730;28;20058;-67
2021/04/07 05:00:59;;;;;;;8.18;6.55;;;-3276.60;81.70;;;-2.12;78.90;95562.91;4948477;28;20095;-65
2021/04/07 05:03:26;;;;;;;7.65;5.70;;;-3276.60;81.50;;;-2.10;78.81;95563.59;4916104;29;20050;-69
2021/04/07 05:05:51;;;;;;;6.70;5.97;;;-3276.70;81.30;;;-2.14;78.80;95569.94;4941346;28;20547;-68
2021/04/07 05:08:17;;;;;;;9.43;6.45;;;-3276.60;81.30;;;-2.13;78.97;95579.31;4948116;28;20039;-69
2021/04/07 05:10:44;;;;;;;7.20;5.95;;;-3276.60;81.30;;;-2.16;78.26;95579.56;4936103;28;20036;-66
2021/04/07 05:13:10;;;;;;;7.55;6.00;;;-3276.60;81.10;;;-2.15;78.88;95586.34;4915360;29;20071;-70
2021/04/07 05:15:36;;;;;;;7.85;6.00;;;-3276.60;80.80;;;-2.17;78.43;95581.31;4942846;28;20073;-68
2021/04/07 05:18:15;;;;;;;7.57;5.80;;;-3276.60;81.10;;;-2.13;78.93;95597.34;4917733;29;20047;-68
2021/04/07 05:20:41;;;;;;;8.48;6.15;;;-3276.60;80.60;;;-2.11;78.53;95592.06;4951538;28;20049;-69
2021/04/07 05:23:07;;;;;;;6.45;5.78;;;-3276.70;80.90;;;-2.08;78.49;95602.94;4921736;29;20040;-68
2021/04/07 05:25:33;;;;;;;58.75;38.90;;;-3276.70;80.60;;;-2.05;78.54;95602.69;4914357;28;20031;-69
2021/04/07 05:28:07;;;;;;;12.65;8.60;;;0.00;81.10;;;-2.02;78.65;95601.66;4924701;28;20051;-70
2021/04/07 05:33:22;;;;;;;13.82;9.77;;;0.00;80.60;;;-1.97;78.54;95613.22;4932849;28;20187;-71
2021/04/07 05:35:47;;;;;;;9.00;6.32;;;0.10;80.50;;;-1.93;78.42;95611.19;4942189;28;20091;-74
2021/04/07 05:38:13;;;;;;;7.75;5.80;;;0.10;79.80;;;-1.97;78.06;95613.22;4911618;29;20035;-68
2021/04/07 05:40:40;;;;;;;16.40;12.13;;;0.00;79.50;;;-1.89;78.73;95621.13;4928611;28;20389;-67
2021/04/07 05:43:06;;;;;;;11.20;8.23;;;0.10;81.10;;;-1.85;78.55;95627.66;4950912;28;20182;-72
2021/04/07 05:45:32;;;;;;;7.45;6.38;;;0.20;80.50;;;-1.76;78.42;95633.03;4958718;28;20050;-67
2021/04/07 05:47:58;;;;;;;6.43;5.63;;;0.30;80.30;;;-1.70;78.28;95637.69;4932823;28;20035;-67
2021/04/07 05:50:23;;;;;;;7.00;5.68;;;0.40;79.40;;;-1.68;77.90;95640.94;4948884;28;20063;-67
2021/04/07 05:52:52;;;;;;;8.40;5.70;;;0.30;78.10;;;-1.68;77.28;95646.09;4961893;28;20058;-68
2021/04/07 05:55:18;;;;;;;9.38;5.80;;;0.20;77.60;;;-1.67;77.20;95645.16;4936398;29;20118;-71
2021/04/07 05:57:55;;;;;;;6.75;5.78;;;0.30;77.80;;;-1.65;77.94;95646.66;4932370;28;20467;-65
2021/04/07 06:00:22;;;;;;;7.63;5.70;;;0.30;78.00;;;-1.59;77.30;95653.09;4947418;28;20046;-72
2021/04/07 06:02:48;;;;;;;9.13;7.78;;;0.30;77.50;;;-1.55;77.12;95652.72;4965439;28;20043;-72
2021/04/07 06:05:14;;;;;;;7.40;5.68;;;0.40;77.30;;;-1.50;76.96;95662.66;4921161;28;20062;-66
2021/04/07 06:07:40;;;;;;;6.45;5.63;;;0.50;77.10;;;-1.47;76.58;95665.00;4920624;28;20053;-66
2021/04/07 06:10:06;;;;;;;7.25;5.30;;;0.50;77.20;;;-1.40;76.53;95670.44;4935473;28;20035;-73
2021/04/07 06:12:32;;;;;;;18.48;13.88;;;0.50;76.60;;;-1.37;76.20;95671.00;4945684;28;20079;-74
2021/04/07 06:14:57;;;;;;;9.75;7.15;;;0.70;77.40;;;-1.34;76.54;95686.25;4946083;28;20501;-74
2021/04/07 06:17:23;;;;;;;7.70;6.32;;;0.50;76.70;;;-1.35;75.76;95679.47;4936522;28;20598;-76
2021/04/07 06:19:49;;;;;;;10.50;7.80;;;0.40;76.30;;;-1.37;75.70;95688.25;4933569;28;20124;-67
2021/04/07 06:22:15;;;;;;;7.72;5.82;;;0.40;77.30;;;-1.36;75.71;95693.31;4923346;29;20027;-74
2021/04/07 06:24:40;;;;;;;7.50;5.63;;;0.40;77.20;;;-1.37;76.25;95696.81;4963129;28;20031;-73
2021/04/07 06:27:06;;;;;;;6.90;5.47;;;0.40;77.50;;;-1.34;75.73;95699.16;4955745;28;20053;-74
2021/04/07 06:29:32;;;;;;;122.85;86.55;;;0.50;77.10;;;-1.29;75.95;95697.03;4927442;28;20418;-76
2021/04/07 06:31:57;;;;;;;8.73;6.85;;;0.70;76.50;;;-1.23;75.49;95709.41;4952221;28;20519;-73
2021/04/07 06:34:23;;;;;;;5.82;5.22;;;0.70;75.90;;;-1.18;75.76;95716.75;4974347;28;20032;-77
2021/04/07 06:36:49;;;;;;;6.53;5.57;;;0.80;75.90;;;-1.14;75.40;95717.31;4967945;28;20050;-75
2021/04/07 06:39:15;;;;;;;8.25;5.72;;;0.80;75.40;;;-1.07;75.48;95724.44;4951555;28;20500;-75
2021/04/07 06:41:40;;;;;;;13.38;9.88;;;1.00;76.00;;;-0.97;75.61;95729.66;4933326;29;20645;-67
2021/04/07 06:44:07;;;;;;;8.75;7.22;;;1.10;75.30;;;-0.95;74.71;95733.75;4911658;28;20110;-74
2021/04/07 06:46:32;;;;;;;8.82;6.88;;;1.10;74.30;;;-0.92;74.81;95743.81;4958760;28;20529;-67
2021/04/07 06:48:58;;;;;;;9.02;6.30;;;1.00;75.10;;;-0.95;74.53;95740.66;4954095;28;20042;-69
2021/04/07 06:51:24;;;;;;;9.73;7.57;;;0.90;74.40;;;-0.96;74.25;95741.63;4936759;28;20086;-68
2021/04/07 06:53:51;;;;;;;26.00;18.42;;;0.80;74.80;;;-0.98;74.31;95759.00;4921292;29;20519;-66
2021/04/07 06:56:17;;;;;;;11.48;8.68;;;0.80;75.60;;;-0.98;74.08;95759.00;4936324;28;20043;-65
2021/04/07 06:58:44;;;;;;;7.13;5.63;;;0.70;74.70;;;-0.97;74.09;95765.78;4917178;29;20063;-66
2021/04/07 07:01:11;;;;;;;7.70;4.50;;;0.80;75.50;;;-0.97;73.97;95763.22;4962547;28;20035;-75
2021/04/07 07:03:36;;;;;;;7.65;4.97;;;0.90;74.40;;;-0.93;74.30;95777.50;4910340;29;20114;-72
2021/04/07 07:06:02;;;;;;;5.25;4.70;;;0.90;73.90;;;-0.92;73.55;95781.72;4920353;28;20038;-68
2021/04/07 07:08:30;;;;;;;6.32;5.20;;;1.00;73.80;;;-0.91;73.90;95775.59;4905167;28;20031;-66
2021/04/07 07:10:56;;;;;;;7.25;4.60;;;1.00;74.10;;;-0.88;73.51;95779.72;4932736;28;20063;-71
2021/04/07 07:13:26;;;;;;;5.47;4.25;;;1.10;73.70;;;-0.84;73.50;95781.09;4954026;28;20464;-71
2021/04/07 07:15:52;;;;;;;5.72;4.13;;;1.10;73.10;;;-0.81;73.26;95780.84;4943253;28;20035;-72
2021/04/07 07:18:26;;;;;;;7.50;5.75;;;1.10;72.50;;;-0.77;72.96;95788.22;4938162;28;20023;-71
2021/04/07 07:20:52;;;;;;;7.00;4.78;;;1.10;72.60;;;-0.75;72.80;95786.31;4920626;28;20055;-71
2021/04/07 07:23:29;;;;;;;7.45;5.45;;;1.10;72.20;;;-0.70;72.59;95799.66;4940707;28;20044;-73
2021/04/07 07:25:58;;;;;;;8.57;7.03;;;1.20;72.20;;;-0.69;72.68;95806.47;4934506;29;20040;-72
2021/04/07 07:28:24;;;;;;;12.00;7.63;;;1.10;72.90;;;-0.66;72.35;95803.66;4950194;28;20135;-69
2021/04/07 07:30:49;;;;;;;6.70;4.80;;;1.30;72.30;;;-0.63;72.08;95811.13;4951499;28;20494;-69
2021/04/07 07:33:18;;;;;;;161.02;112.90;;;1.30;71.50;;;-0.63;71.96;95811.13;4935787;28;20059;-70
2021/04/07 07:35:45;;;;;;;9.25;7.65;;;1.30;71.70;;;-0.59;71.76;95816.03;4933074;28;20038;-72
2021/04/07 07:38:11;;;;;;;7.28;5.03;;;1.20;71.20;;;-0.54;71.68;95826.81;4916890;28;20043;-71
2021/04/07 07:40:37;;;;;;;7.10;4.50;;;1.40;70.80;;;-0.50;71.73;95828.19;4948360;28;20146;-69
2021/04/07 07:43:03;;;;;;;6.95;4.90;;;1.40;70.60;;;-0.43;71.59;95829.31;4905002;29;20578;-65
2021/04/07 07:45:36;;;;;;;7.90;4.97;;;1.60;70.90;;;-0.34;70.91;95838.88;4930812;29;20043;-74
2021/04/07 07:48:17;;;;;;;7.75;4.80;;;1.70;69.60;;;-0.34;71.36;95831.94;4936547;28;20031;-72
2021/04/07 07:50:45;;;;;;;6.18;5.03;;;1.80;69.90;;;-0.24;71.09;95837.16;4962465;28;20040;-74
2021/04/07 07:53:18;;;;;;;7.30;5.05;;;1.90;69.10;;;-0.16;70.44;95842.50;4917464;29;20043;-75
2021/04/07 07:55:46;;;;;;;7.68;5.22;;;2.00;68.90;;;-0.07;70.81;95848.66;4934764;28;20227;-73
2021/04/07 07:58:12;;;;;;;8.40;5.32;;;2.10;69.30;;;-0.04;70.23;95854.38;4924274;28;20043;-73
2021/04/07 08:00:38;;;;;;;6.32;5.22;;;2.10;68.70;;;0.05;70.58;95862.34;4903153;28;20407;-67
2021/04/07 08:03:14;;;;;;;7.00;5.20;;;2.10;69.50;;;0.10;69.87;95860.16;4934104;28;20035;-71
2021/04/07 08:05:41;;;;;;;11.55;6.88;;;2.10;67.90;;;0.14;70.10;95859.78;4924035;28;20050;-66
2021/04/07 08:08:08;;;;;;;14.65;8.05;;;2.20;68.10;;;0.27;70.24;95856.97;4922588;29;20118;-67
2021/04/07 08:10:36;;;;;;;7.43;4.90;;;2.60;68.40;;;0.38;69.22;95856.84;4918893;28;20439;-71
2021/04/07 08:13:02;;;;;;;11.70;7.45;;;2.50;66.20;;;0.39;69.56;95868.81;4935980;28;20051;-72
2021/04/07 08:15:29;;;;;;;8.05;5.40;;;2.40;66.60;;;0.46;69.56;95869.97;4929202;28;20043;-71
2021/04/07 08:17:55;;;;;;;12.80;9.88;;;2.60;67.00;;;0.55;69.65;95874.31;4900171;29;20391;-73
2021/04/07 08:20:21;;;;;;;8.32;4.85;;;2.70;67.60;;;0.73;69.77;95874.50;4937888;28;20042;-66
2021/04/07 08:22:47;;;;;;;5.10;4.15;;;3.10;65.70;;;1.02;69.60;95874.53;4931429;28;20402;-73
2021/04/07 08:25:14;;;;;;;5.85;5.22;;;3.60;64.90;;;1.39;68.99;95873.84;4930042;28;20530;-67
2021/04/07 08:27:40;;;;;;;6.38;4.35;;;3.90;64.20;;;1.66;68.38;95884.31;4917312;29;20030;-73
2021/04/07 08:30:07;;;;;;;8.90;5.20;;;4.10;61.80;;;1.85;67.75;95886.03;4919042;29;20024;-72
2021/04/07 08:32:32;;;;;;;6.03;3.80;;;4.10;61.40;;;1.91;67.14;95887.25;4932022;28;20067;-75
2021/04/07 08:34:59;;;;;;;5.80;4.10;;;4.00;60.10;;;1.88;66.46;95885.75;4915169;29;20035;-70
2021/04/07 08:37:28;;;;;;;6.35;4.28;;;3.80;60.80;;;1.84;65.21;95893.00;4931520;29;20056;-72
2021/04/07 08:39:55;;;;;;;5.07;3.75;;;3.60;60.90;;;1.72;65.74;95893.28;4947452;28;20034;-74
2021/04/07 08:42:21;;;;;;;7.38;4.53;;;3.30;61.00;;;1.71;65.87;95889.06;4946741;28;20071;-68
2021/04/07 08:44:49;;;;;;;5.75;3.65;;;3.70;61.20;;;1.69;65.21;95893.56;4929138;28;20036;-74
2021/04/07 08:47:33;;;;;;;8.00;4.00;;;3.60;60.60;;;1.79;63.91;95895.19;4953534;28;20104;-68
2021/04/07 08:50:07;;;;;;;6.97;3.97;;;3.90;59.30;;;2.05;63.86;95902.38;4985455;28;20081;-66
2021/04/07 08:52:48;;;;;;;6.05;3.83;;;4.20;58.30;;;2.24;63.54;95909.25;4904428;28;20039;-71
2021/04/07 08:55:20;;;;;;;5.72;3.33;;;4.40;57.60;;;2.38;62.49;95901.84;4936206;28;20487;-70
2021/04/07 08:58:04;;;;;;;5.07;3.88;;;4.40;57.90;;;2.70;62.53;95916.16;4934204;28;20059;-67
2021/04/07 09:00:32;;;;;;;17.58;10.27;;;4.80;56.90;;;2.64;63.47;95919.34;4924195;28;20050;-67
2021/04/07 09:03:08;;;;;;;6.78;3.65;;;4.10;60.90;;;2.42;63.25;95918.75;4933124;28;20085;-67
2021/04/07 09:05:45;;;;;;;6.38;3.33;;;3.80;61.90;;;2.44;63.59;95921.19;4917695;29;20031;-67
2021/04/07 09:08:15;;;;;;;8.10;4.78;;;4.30;61.60;;;2.45;63.45;95928.84;4934419;28;20173;-72
2021/04/07 09:10:43;;;;;;;7.50;4.72;;;4.10;61.00;;;2.22;63.64;95937.94;4933862;28;20036;-71
2021/04/07 09:13:35;;;;;;;9.13;4.68;;;3.60;64.00;;;1.96;65.04;95947.28;4922119;28;20039;-68
2021/04/07 09:16:07;;;;;;;6.55;4.03;;;3.40;66.70;;;1.65;66.49;95949.25;4943243;28;20581;-72
2021/04/07 09:18:47;;;;;;;9.45;4.80;;;2.70;71.00;;;1.35;68.00;95953.59;4935224;28;20111;-68
2021/04/07 09:21:16;;;;;;;6.80;4.53;;;2.60;74.40;;;1.06;67.71;95948.41;4943228;28;20055;-69
2021/04/07 09:23:44;;;;;;;7.28;4.60;;;2.50;76.30;;;0.93;67.34;95942.69;4952029;28;20068;-77
2021/04/07 09:26:17;;;;;;;6.55;3.58;;;2.60;73.10;;;0.96;67.68;95947.59;4918875;29;20046;-72
2021/04/07 09:28:44;;;;;;;7.47;3.88;;;3.00;68.50;;;1.26;67.27;95941.47;4934121;28;20119;-74
2021/04/07 09:31:13;;;;;;;8.73;4.90;;;3.60;66.00;;;1.65;66.06;95950.06;4933209;28;20039;-75
2021/04/07 09:33:44;;;;;;;7.97;4.28;;;3.60;63.00;;;2.09;65.89;95948.66;4950595;28;20047;-75
2021/04/07 09:36:10;;;;;;;6.60;4.13;;;4.50;64.20;;;2.82;64.88;95948.78;4917372;29;20027;-74
2021/04/07 09:38:58;;;;;;;6.60;4.03;;;5.30;60.50;;;3.51;62.08;95945.59;4943308;28;20226;-74
2021/04/07 09:41:33;;;;;;;5.25;3.58;;;5.90;59.00;;;3.99;60.94;95941.72;4943681;29;20039;-68
2021/04/07 09:44:09;;;;;;;7.97;3.35;;;6.10;53.60;;;4.39;61.27;95940.38;4904574;29;20055;-74
2021/04/07 09:46:35;;;;;;;7.35;3.80;;;6.40;50.70;;;4.55;60.80;95943.06;4943270;28;20578;-74
2021/04/07 09:49:06;;;;;;;16.38;9.10;;;6.30;49.60;;;4.33;57.29;95959.22;4914897;29;20123;-69
2021/04/07 09:51:38;;;;;;;6.88;3.97;;;5.20;50.90;;;3.82;60.84;95972.00;4933546;28;20598;-71
2021/04/07 09:54:21;;;;;;;8.85;3.10;;;4.50;64.10;;;3.28;62.41;95966.00;4926827;29;20166;-73
2021/04/07 09:57:00;;;;;;;7.53;3.10;;;4.30;65.80;;;3.15;62.73;95967.31;4928234;28;20133;-72
2021/04/07 09:59:36;;;;;;;5.55;2.90;;;4.70;62.70;;;3.51;61.69;95955.97;4929961;28;20138;-70
2021/04/07 10:02:06;;;;;;;5.53;2.92;;;5.30;59.60;;;3.97;61.01;95960.09;4953567;28;20031;-72
2021/04/07 10:04:37;;;;;;;4.50;3.00;;;5.90;56.80;;;4.13;60.73;95980.22;4910382;28;20524;-68
2021/04/07 10:07:16;;;;;;;3.70;2.30;;;5.90;56.30;;;4.21;58.93;95976.84;4987242;28;20046;-69
2021/04/07 10:09:44;;;;;;;4.47;2.08;;;6.20;55.60;;;3.87;61.49;95989.78;4959204;28;20407;-69
2021/04/07 10:12:11;;;;;;;6.63;4.07;;;5.10;61.60;;;3.60;61.46;95983.69;4922824;29;20043;-70
2021/04/07 10:14:37;;;;;;;3.67;2.05;;;4.60;61.70;;;3.30;61.89;95987.47;4963720;28;20122;-70
2021/04/07 10:17:17;;;;;;;3.58;2.20;;;4.20;62.50;;;3.12;61.88;95993.59;4917808;29;20032;-69
2021/04/07 10:19:43;;;;;;;3.55;1.80;;;4.70;62.50;;;3.28;62.21;95979.00;4921741;29;20032;-72
2021/04/07 10:22:15;;;;;;;3.58;1.50;;;5.10;59.60;;;3.90;61.06;95976.47;4921709;29;20527;-69
2021/04/07 10:24:42;;;;;;;5.60;2.33;;;5.90;55.90;;;4.68;59.70;95979.91;4921814;28;20454;-69
2021/04/07 10:27:08;;;;;;;6.35;2.05;;;6.30;53.50;;;5.49;57.42;95967.16;4921238;28;20035;-70